sensor_id;sensor_type;location;lat;lon;timestamp;P1;durP1;ratioP1;P2;durP2;ratioP2
66751;SDS011;53663;42.676;23.238;2023-01-29T00:01:50;12.43;;;5.95;;
66751;SDS011;53663;42.676;23.238;2023-01-29T00:04:17;12.02;;;6.70;;
66751;SDS011;53663;42.676;23.238;2023-01-29T00:06:42;11.20;;;6.00;;
66751;SDS011;53663;42.676;23.238;2023-01-29T00:09:08;13.25;;;6.68;;
66751;SDS011;53663;42.676;23.238;2023-01-29T00:11:34;12.88;;;6.85;;
66751;SDS011;53663;42.676;23.238;2023-01-29T00:13:59;10.43;;;6.30;;
66751;SDS011;53663;42.676;23.238;2023-01-29T00:16:25;12.07;;;6.57;;
66751;SDS011;53663;42.676;23.238;2023-01-29T00:18:50;9.40;;;5.47;;
66751;SDS011;53663;42.676;23.238;2023-01-29T00:21:17;10.68;;;5.68;;
66751;SDS011;53663;42.676;23.238;2023-01-29T00:23:44;11.88;;;6.00;;
66751;SDS011;53663;42.676;23.238;2023-01-29T00:26:10;11.20;;;5.97;;
66751;SDS011;53663;42.676;23.238;2023-01-29T00:28:41;11.80;;;5.95;;
66751;SDS011;53663;42.676;23.238;2023-01-29T00:31:07;11.10;;;5.95;;
66751;SDS011;53663;42.676;23.238;2023-01-29T00:33:34;10.02;;;6.03;;
66751;SDS011;53663;42.676;23.238;2023-01-29T00:36:01;10.88;;;5.72;;
66751;SDS011;53663;42.676;23.238;2023-01-29T00:38:31;13.18;;;6.20;;
66751;SDS011;53663;42.676;23.238;2023-01-29T00:41:04;9.63;;;5.75;;
66751;SDS011;53663;42.676;23.238;2023-01-29T00:43:51;11.20;;;6.00;;
66751;SDS011;53663;42.676;23.238;2023-01-29T00:46:36;10.52;;;5.80;;
66751;SDS011;53663;42.676;23.238;2023-01-29T00:49:02;12.20;;;5.90;;
66751;SDS011;53663;42.676;23.238;2023-01-29T00:51:28;8.48;;;5.20;;
66751;SDS011;53663;42.676;23.238;2023-01-29T00:53:54;10.05;;;5.30;;
66751;SDS011;53663;42.676;23.238;2023-01-29T00:56:28;9.55;;;5.75;;
66751;SDS011;53663;42.676;23.238;2023-01-29T00:58:55;9.93;;;5.57;;
66751;SDS011;53663;42.676;23.238;2023-01-29T01:01:21;10.32;;;5.82;;
66751;SDS011;53663;42.676;23.238;2023-01-29T01:04:10;11.68;;;5.55;;
66751;SDS011;53663;42.676;23.238;2023-01-29T01:06:37;10.10;;;5.95;;
66751;SDS011;53663;42.676;23.238;2023-01-29T01:09:03;9.43;;;5.40;;
66751;SDS011;53663;42.676;23.238;2023-01-29T01:11:48;9.63;;;5.63;;
66751;SDS011;53663;42.676;23.238;2023-01-29T01:14:14;11.40;;;5.90;;
66751;SDS011;53663;42.676;23.238;2023-01-29T01:16:41;12.15;;;5.38;;
66751;SDS011;53663;42.676;23.238;2023-01-29T01:19:06;10.50;;;5.65;;
66751;SDS011;53663;42.676;23.238;2023-01-29T01:21:32;12.55;;;6.47;;
66751;SDS011;53663;42.676;23.238;2023-01-29T01:23:58;12.52;;;6.40;;
66751;SDS011;53663;42.676;23.238;2023-01-29T01:26:23;10.45;;;5.90;;
66751;SDS011;53663;42.676;23.238;2023-01-29T01:28:49;10.85;;;5.93;;
66751;SDS011;53663;42.676;23.238;2023-01-29T01:31:14;10.35;;;6.13;;
66751;SDS011;53663;42.676;23.238;2023-01-29T01:33:40;11.73;;;6.03;;
66751;SDS011;53663;42.676;23.238;2023-01-29T01:36:06;9.00;;;5.47;;
66751;SDS011;53663;42.676;23.238;2023-01-29T01:38:35;10.32;;;6.00;;
66751;SDS011;53663;42.676;23.238;2023-01-29T01:41:08;9.43;;;5.47;;
66751;SDS011;53663;42.676;23.238;2023-01-29T01:46:32;8.38;;;5.20;;
66751;SDS011;53663;42.676;23.238;2023-01-29T01:51:29;10.18;;;5.28;;
66751;SDS011;53663;42.676;23.238;2023-01-29T01:53:58;11.05;;;6.10;;
66751;SDS011;53663;42.676;23.238;2023-01-29T01:56:35;11.80;;;6.20;;
66751;SDS011;53663;42.676;23.238;2023-01-29T01:59:26;12.27;;;6.15;;
66751;SDS011;53663;42.676;23.238;2023-01-29T02:01:52;9.52;;;5.20;;
66751;SDS011;53663;42.676;23.238;2023-01-29T02:04:21;12.40;;;5.38;;
66751;SDS011;53663;42.676;23.238;2023-01-29T02:07:09;8.68;;;5.53;;
66751;SDS011;53663;42.676;23.238;2023-01-29T02:12:27;9.35;;;5.25;;
66751;SDS011;53663;42.676;23.238;2023-01-29T02:14:56;9.77;;;5.43;;
66751;SDS011;53663;42.676;23.238;2023-01-29T02:17:22;8.60;;;5.13;;
66751;SDS011;53663;42.676;23.238;2023-01-29T02:20:30;10.10;;;5.43;;
66751;SDS011;53663;42.676;23.238;2023-01-29T02:30:53;10.20;;;5.90;;
66751;SDS011;53663;42.676;23.238;2023-01-29T02:36:37;10.55;;;5.60;;
66751;SDS011;53663;42.676;23.238;2023-01-29T02:39:16;10.60;;;5.30;;
66751;SDS011;53663;42.676;23.238;2023-01-29T02:42:36;8.40;;;5.20;;
66751;SDS011;53663;42.676;23.238;2023-01-29T02:47:21;7.97;;;4.97;;
66751;SDS011;53663;42.676;23.238;2023-01-29T02:49:58;9.88;;;5.40;;
66751;SDS011;53663;42.676;23.238;2023-01-29T02:52:34;8.55;;;5.40;;
66751;SDS011;53663;42.676;23.238;2023-01-29T02:55:15;9.25;;;5.45;;
66751;SDS011;53663;42.676;23.238;2023-01-29T02:57:46;9.27;;;5.30;;
66751;SDS011;53663;42.676;23.238;2023-01-29T03:00:18;9.00;;;5.65;;
66751;SDS011;53663;42.676;23.238;2023-01-29T03:02:48;8.75;;;5.00;;
66751;SDS011;53663;42.676;23.238;2023-01-29T03:05:23;9.23;;;5.20;;
66751;SDS011;53663;42.676;23.238;2023-01-29T03:07:57;8.73;;;4.78;;
66751;SDS011;53663;42.676;23.238;2023-01-29T03:11:14;9.38;;;5.43;;
66751;SDS011;53663;42.676;23.238;2023-01-29T03:16:19;8.73;;;5.13;;
66751;SDS011;53663;42.676;23.238;2023-01-29T03:19:09;9.02;;;4.75;;
66751;SDS011;53663;42.676;23.238;2023-01-29T03:21:58;9.93;;;4.75;;
66751;SDS011;53663;42.676;23.238;2023-01-29T03:25:12;9.45;;;4.47;;
66751;SDS011;53663;42.676;23.238;2023-01-29T03:27:52;6.35;;;4.00;;
66751;SDS011;53663;42.676;23.238;2023-01-29T03:30:51;6.72;;;4.00;;
66751;SDS011;53663;42.676;23.238;2023-01-29T03:36:57;6.38;;;3.67;;
66751;SDS011;53663;42.676;23.238;2023-01-29T03:39:10;7.55;;;3.90;;
66751;SDS011;53663;42.676;23.238;2023-01-29T03:41:45;7.72;;;4.35;;
66751;SDS011;53663;42.676;23.238;2023-01-29T03:44:41;5.57;;;3.35;;
66751;SDS011;53663;42.676;23.238;2023-01-29T03:58:08;6.13;;;3.75;;
66751;SDS011;53663;42.676;23.238;2023-01-29T04:00:51;7.60;;;4.00;;
66751;SDS011;53663;42.676;23.238;2023-01-29T04:03:32;7.35;;;4.28;;
66751;SDS011;53663;42.676;23.238;2023-01-29T04:11:27;6.43;;;3.55;;
66751;SDS011;53663;42.676;23.238;2023-01-29T04:13:55;6.60;;;3.67;;
66751;SDS011;53663;42.676;23.238;2023-01-29T04:16:30;5.50;;;3.38;;
66751;SDS011;53663;42.676;23.238;2023-01-29T04:19:12;3.97;;;2.97;;
66751;SDS011;53663;42.676;23.238;2023-01-29T04:21:40;4.78;;;3.40;;
66751;SDS011;53663;42.676;23.238;2023-01-29T04:24:06;5.70;;;3.17;;
66751;SDS011;53663;42.676;23.238;2023-01-29T04:29:38;5.40;;;3.17;;
66751;SDS011;53663;42.676;23.238;2023-01-29T04:32:17;5.43;;;3.75;;
66751;SDS011;53663;42.676;23.238;2023-01-29T04:43:29;7.75;;;3.85;;
66751;SDS011;53663;42.676;23.238;2023-01-29T04:46:11;5.32;;;2.90;;
66751;SDS011;53663;42.676;23.238;2023-01-29T04:48:49;4.35;;;2.92;;
66751;SDS011;53663;42.676;23.238;2023-01-29T04:54:49;5.13;;;3.10;;
66751;SDS011;53663;42.676;23.238;2023-01-29T04:59:49;4.32;;;2.90;;
66751;SDS011;53663;42.676;23.238;2023-01-29T05:02:19;4.07;;;2.97;;
66751;SDS011;53663;42.676;23.238;2023-01-29T05:04:48;5.00;;;3.28;;
66751;SDS011;53663;42.676;23.238;2023-01-29T05:07:14;6.25;;;3.50;;
66751;SDS011;53663;42.676;23.238;2023-01-29T05:09:42;4.53;;;2.90;;
66751;SDS011;53663;42.676;23.238;2023-01-29T05:12:11;5.30;;;3.08;;
66751;SDS011;53663;42.676;23.238;2023-01-29T05:14:38;4.53;;;3.05;;
66751;SDS011;53663;42.676;23.238;2023-01-29T05:17:14;8.07;;;3.90;;
66751;SDS011;53663;42.676;23.238;2023-01-29T05:19:42;6.50;;;3.67;;
66751;SDS011;53663;42.676;23.238;2023-01-29T05:22:08;6.22;;;3.22;;
66751;SDS011;53663;42.676;23.238;2023-01-29T05:24:35;5.40;;;3.08;;
66751;SDS011;53663;42.676;23.238;2023-01-29T05:27:01;5.10;;;3.28;;
66751;SDS011;53663;42.676;23.238;2023-01-29T05:29:46;7.43;;;3.80;;
66751;SDS011;53663;42.676;23.238;2023-01-29T05:32:12;5.82;;;3.50;;
66751;SDS011;53663;42.676;23.238;2023-01-29T05:34:38;7.38;;;3.13;;
66751;SDS011;53663;42.676;23.238;2023-01-29T05:37:03;5.22;;;3.15;;
66751;SDS011;53663;42.676;23.238;2023-01-29T05:39:29;5.15;;;3.05;;
66751;SDS011;53663;42.676;23.238;2023-01-29T05:41:55;8.55;;;3.40;;
66751;SDS011;53663;42.676;23.238;2023-01-29T05:44:20;4.30;;;2.80;;
66751;SDS011;53663;42.676;23.238;2023-01-29T05:46:46;4.90;;;3.30;;
66751;SDS011;53663;42.676;23.238;2023-01-29T05:49:11;5.63;;;3.45;;
66751;SDS011;53663;42.676;23.238;2023-01-29T05:51:37;5.18;;;3.03;;
66751;SDS011;53663;42.676;23.238;2023-01-29T05:54:03;5.07;;;3.00;;
66751;SDS011;53663;42.676;23.238;2023-01-29T05:56:28;5.00;;;3.17;;
66751;SDS011;53663;42.676;23.238;2023-01-29T05:58:54;5.07;;;3.15;;
66751;SDS011;53663;42.676;23.238;2023-01-29T06:01:21;5.80;;;2.72;;
66751;SDS011;53663;42.676;23.238;2023-01-29T06:03:48;5.53;;;3.05;;
66751;SDS011;53663;42.676;23.238;2023-01-29T06:06:13;5.82;;;3.22;;
66751;SDS011;53663;42.676;23.238;2023-01-29T06:08:39;4.07;;;2.83;;
66751;SDS011;53663;42.676;23.238;2023-01-29T06:11:09;5.10;;;3.10;;
66751;SDS011;53663;42.676;23.238;2023-01-29T06:13:35;5.70;;;3.45;;
66751;SDS011;53663;42.676;23.238;2023-01-29T06:16:05;6.65;;;3.70;;
66751;SDS011;53663;42.676;23.238;2023-01-29T06:18:31;5.85;;;3.60;;
66751;SDS011;53663;42.676;23.238;2023-01-29T06:21:00;6.40;;;3.80;;
66751;SDS011;53663;42.676;23.238;2023-01-29T06:23:30;7.85;;;4.22;;
66751;SDS011;53663;42.676;23.238;2023-01-29T06:25:59;5.78;;;3.70;;
66751;SDS011;53663;42.676;23.238;2023-01-29T06:28:25;9.50;;;4.30;;
66751;SDS011;53663;42.676;23.238;2023-01-29T06:30:51;9.73;;;4.90;;
66751;SDS011;53663;42.676;23.238;2023-01-29T06:33:16;8.27;;;4.85;;
66751;SDS011;53663;42.676;23.238;2023-01-29T06:35:42;7.28;;;4.25;;
66751;SDS011;53663;42.676;23.238;2023-01-29T06:38:07;6.57;;;3.78;;
66751;SDS011;53663;42.676;23.238;2023-01-29T06:40:33;7.40;;;4.30;;
66751;SDS011;53663;42.676;23.238;2023-01-29T06:43:01;9.63;;;4.97;;
66751;SDS011;53663;42.676;23.238;2023-01-29T06:45:27;6.97;;;4.40;;
66751;SDS011;53663;42.676;23.238;2023-01-29T06:47:52;5.78;;;3.88;;
66751;SDS011;53663;42.676;23.238;2023-01-29T06:50:18;5.75;;;3.55;;
66751;SDS011;53663;42.676;23.238;2023-01-29T06:52:43;7.93;;;4.30;;
66751;SDS011;53663;42.676;23.238;2023-01-29T06:55:09;7.78;;;4.68;;
66751;SDS011;53663;42.676;23.238;2023-01-29T06:57:34;7.15;;;4.50;;
66751;SDS011;53663;42.676;23.238;2023-01-29T07:00:00;21.48;;;10.20;;
66751;SDS011;53663;42.676;23.238;2023-01-29T07:02:26;19.15;;;9.90;;
66751;SDS011;53663;42.676;23.238;2023-01-29T07:04:51;11.25;;;7.22;;
66751;SDS011;53663;42.676;23.238;2023-01-29T07:07:16;8.88;;;5.13;;
66751;SDS011;53663;42.676;23.238;2023-01-29T07:09:42;8.73;;;4.63;;
66751;SDS011;53663;42.676;23.238;2023-01-29T07:12:08;9.00;;;5.68;;
66751;SDS011;53663;42.676;23.238;2023-01-29T07:14:34;7.93;;;4.72;;
66751;SDS011;53663;42.676;23.238;2023-01-29T07:17:00;10.38;;;5.43;;
66751;SDS011;53663;42.676;23.238;2023-01-29T07:19:26;7.97;;;5.10;;
66751;SDS011;53663;42.676;23.238;2023-01-29T07:21:51;7.85;;;5.05;;
66751;SDS011;53663;42.676;23.238;2023-01-29T07:24:17;9.55;;;5.38;;
66751;SDS011;53663;42.676;23.238;2023-01-29T07:26:43;8.75;;;5.22;;
66751;SDS011;53663;42.676;23.238;2023-01-29T07:29:09;8.82;;;5.30;;
66751;SDS011;53663;42.676;23.238;2023-01-29T07:31:34;8.68;;;4.75;;
66751;SDS011;53663;42.676;23.238;2023-01-29T07:34:00;11.05;;;6.70;;
66751;SDS011;53663;42.676;23.238;2023-01-29T07:36:26;9.63;;;5.45;;
66751;SDS011;53663;42.676;23.238;2023-01-29T07:38:52;11.55;;;5.53;;
66751;SDS011;53663;42.676;23.238;2023-01-29T07:41:18;10.07;;;6.07;;
66751;SDS011;53663;42.676;23.238;2023-01-29T07:43:45;13.18;;;6.10;;
66751;SDS011;53663;42.676;23.238;2023-01-29T07:46:10;10.30;;;5.93;;
66751;SDS011;53663;42.676;23.238;2023-01-29T07:48:36;11.57;;;6.55;;
66751;SDS011;53663;42.676;23.238;2023-01-29T07:51:01;12.88;;;7.40;;
66751;SDS011;53663;42.676;23.238;2023-01-29T07:53:27;12.55;;;7.45;;
66751;SDS011;53663;42.676;23.238;2023-01-29T07:55:53;11.60;;;6.43;;
66751;SDS011;53663;42.676;23.238;2023-01-29T07:58:19;9.27;;;5.93;;
66751;SDS011;53663;42.676;23.238;2023-01-29T08:00:44;11.68;;;6.57;;
66751;SDS011;53663;42.676;23.238;2023-01-29T08:03:11;10.43;;;5.72;;
66751;SDS011;53663;42.676;23.238;2023-01-29T08:05:40;8.38;;;5.20;;
66751;SDS011;53663;42.676;23.238;2023-01-29T08:08:06;9.18;;;5.47;;
66751;SDS011;53663;42.676;23.238;2023-01-29T08:10:31;12.88;;;6.38;;
66751;SDS011;53663;42.676;23.238;2023-01-29T08:12:58;11.18;;;5.03;;
66751;SDS011;53663;42.676;23.238;2023-01-29T08:15:24;10.00;;;5.97;;
66751;SDS011;53663;42.676;23.238;2023-01-29T08:17:51;9.32;;;5.30;;
66751;SDS011;53663;42.676;23.238;2023-01-29T08:20:17;8.85;;;5.38;;
66751;SDS011;53663;42.676;23.238;2023-01-29T08:22:43;10.35;;;6.00;;
66751;SDS011;53663;42.676;23.238;2023-01-29T08:25:09;10.20;;;5.35;;
66751;SDS011;53663;42.676;23.238;2023-01-29T08:27:35;13.38;;;6.50;;
66751;SDS011;53663;42.676;23.238;2023-01-29T08:30:01;9.95;;;6.03;;
66751;SDS011;53663;42.676;23.238;2023-01-29T08:32:26;12.25;;;6.55;;
66751;SDS011;53663;42.676;23.238;2023-01-29T08:34:52;10.77;;;6.05;;
66751;SDS011;53663;42.676;23.238;2023-01-29T08:37:17;14.60;;;6.45;;
66751;SDS011;53663;42.676;23.238;2023-01-29T08:39:43;10.80;;;6.40;;
66751;SDS011;53663;42.676;23.238;2023-01-29T08:42:08;12.98;;;6.40;;
66751;SDS011;53663;42.676;23.238;2023-01-29T08:44:34;9.70;;;6.30;;
66751;SDS011;53663;42.676;23.238;2023-01-29T08:46:59;9.85;;;5.85;;
66751;SDS011;53663;42.676;23.238;2023-01-29T08:49:25;10.45;;;6.25;;
66751;SDS011;53663;42.676;23.238;2023-01-29T08:51:50;10.57;;;6.32;;
66751;SDS011;53663;42.676;23.238;2023-01-29T08:54:16;11.55;;;6.32;;
66751;SDS011;53663;42.676;23.238;2023-01-29T08:56:41;10.80;;;6.38;;
66751;SDS011;53663;42.676;23.238;2023-01-29T08:59:08;13.30;;;6.82;;
66751;SDS011;53663;42.676;23.238;2023-01-29T09:01:34;11.30;;;7.20;;
66751;SDS011;53663;42.676;23.238;2023-01-29T09:03:59;11.48;;;6.20;;
66751;SDS011;53663;42.676;23.238;2023-01-29T09:06:25;11.00;;;6.80;;
66751;SDS011;53663;42.676;23.238;2023-01-29T09:08:50;10.75;;;6.57;;
66751;SDS011;53663;42.676;23.238;2023-01-29T09:11:16;12.38;;;6.85;;
66751;SDS011;53663;42.676;23.238;2023-01-29T09:13:42;11.57;;;6.93;;
66751;SDS011;53663;42.676;23.238;2023-01-29T09:16:08;11.10;;;6.55;;
66751;SDS011;53663;42.676;23.238;2023-01-29T09:18:34;13.63;;;6.93;;
66751;SDS011;53663;42.676;23.238;2023-01-29T09:20:59;15.40;;;7.30;;
66751;SDS011;53663;42.676;23.238;2023-01-29T09:23:27;15.15;;;7.45;;
66751;SDS011;53663;42.676;23.238;2023-01-29T09:25:53;12.23;;;6.60;;
66751;SDS011;53663;42.676;23.238;2023-01-29T09:28:19;13.32;;;7.32;;
66751;SDS011;53663;42.676;23.238;2023-01-29T09:30:44;14.13;;;7.47;;
66751;SDS011;53663;42.676;23.238;2023-01-29T09:33:10;13.45;;;7.15;;
66751;SDS011;53663;42.676;23.238;2023-01-29T09:35:36;11.80;;;7.13;;
66751;SDS011;53663;42.676;23.238;2023-01-29T09:38:05;11.70;;;6.78;;
66751;SDS011;53663;42.676;23.238;2023-01-29T09:43:18;15.25;;;6.82;;
66751;SDS011;53663;42.676;23.238;2023-01-29T09:46:00;13.98;;;7.10;;
66751;SDS011;53663;42.676;23.238;2023-01-29T09:48:32;20.48;;;8.10;;
66751;SDS011;53663;42.676;23.238;2023-01-29T09:51:02;25.45;;;10.15;;
66751;SDS011;53663;42.676;23.238;2023-01-29T09:53:38;25.88;;;8.00;;
66751;SDS011;53663;42.676;23.238;2023-01-29T09:56:16;15.55;;;7.40;;
66751;SDS011;53663;42.676;23.238;2023-01-29T09:58:45;21.08;;;8.15;;
66751;SDS011;53663;42.676;23.238;2023-01-29T10:01:30;25.48;;;9.93;;
66751;SDS011;53663;42.676;23.238;2023-01-29T10:04:37;17.63;;;8.55;;
66751;SDS011;53663;42.676;23.238;2023-01-29T10:20:26;16.52;;;7.82;;
66751;SDS011;53663;42.676;23.238;2023-01-29T10:25:39;13.65;;;7.85;;
66751;SDS011;53663;42.676;23.238;2023-01-29T10:28:13;13.30;;;7.90;;
66751;SDS011;53663;42.676;23.238;2023-01-29T10:30:49;20.55;;;9.75;;
66751;SDS011;53663;42.676;23.238;2023-01-29T10:33:32;14.93;;;8.18;;
66751;SDS011;53663;42.676;23.238;2023-01-29T10:36:10;14.93;;;8.30;;
66751;SDS011;53663;42.676;23.238;2023-01-29T10:38:43;16.92;;;8.52;;
66751;SDS011;53663;42.676;23.238;2023-01-29T10:59:45;18.77;;;9.07;;
66751;SDS011;53663;42.676;23.238;2023-01-29T11:02:23;18.05;;;9.65;;
66751;SDS011;53663;42.676;23.238;2023-01-29T11:04:48;17.90;;;9.38;;
66751;SDS011;53663;42.676;23.238;2023-01-29T11:07:15;18.27;;;9.23;;
66751;SDS011;53663;42.676;23.238;2023-01-29T11:12:15;18.73;;;10.05;;
66751;SDS011;53663;42.676;23.238;2023-01-29T11:14:54;18.52;;;9.15;;
66751;SDS011;53663;42.676;23.238;2023-01-29T11:17:24;21.65;;;10.90;;
66751;SDS011;53663;42.676;23.238;2023-01-29T11:19:51;20.88;;;9.73;;
66751;SDS011;53663;42.676;23.238;2023-01-29T11:22:23;19.33;;;9.73;;
66751;SDS011;53663;42.676;23.238;2023-01-29T11:29:59;17.52;;;9.77;;
66751;SDS011;53663;42.676;23.238;2023-01-29T11:32:27;21.25;;;10.10;;
66751;SDS011;53663;42.676;23.238;2023-01-29T11:37:33;16.92;;;9.25;;
66751;SDS011;53663;42.676;23.238;2023-01-29T11:42:45;17.45;;;8.73;;
66751;SDS011;53663;42.676;23.238;2023-01-29T11:45:23;17.33;;;8.95;;
66751;SDS011;53663;42.676;23.238;2023-01-29T11:47:49;22.40;;;10.25;;
66751;SDS011;53663;42.676;23.238;2023-01-29T11:53:21;25.23;;;12.38;;
66751;SDS011;53663;42.676;23.238;2023-01-29T11:55:50;21.90;;;12.13;;
66751;SDS011;53663;42.676;23.238;2023-01-29T11:58:26;20.13;;;11.02;;
66751;SDS011;53663;42.676;23.238;2023-01-29T12:00:54;17.38;;;10.23;;
66751;SDS011;53663;42.676;23.238;2023-01-29T12:06:04;21.45;;;10.43;;
66751;SDS011;53663;42.676;23.238;2023-01-29T12:08:51;22.83;;;11.18;;
66751;SDS011;53663;42.676;23.238;2023-01-29T12:11:26;18.95;;;10.05;;
66751;SDS011;53663;42.676;23.238;2023-01-29T12:13:55;20.30;;;10.40;;
66751;SDS011;53663;42.676;23.238;2023-01-29T12:16:49;18.63;;;9.32;;
66751;SDS011;53663;42.676;23.238;2023-01-29T12:21:52;17.33;;;10.10;;
66751;SDS011;53663;42.676;23.238;2023-01-29T12:40:16;17.95;;;10.23;;
66751;SDS011;53663;42.676;23.238;2023-01-29T12:42:50;18.50;;;10.35;;
66751;SDS011;53663;42.676;23.238;2023-01-29T12:45:21;19.08;;;9.90;;
66751;SDS011;53663;42.676;23.238;2023-01-29T12:48:00;17.52;;;9.45;;
66751;SDS011;53663;42.676;23.238;2023-01-29T12:50:36;19.60;;;9.45;;
66751;SDS011;53663;42.676;23.238;2023-01-29T12:55:45;20.48;;;10.88;;
66751;SDS011;53663;42.676;23.238;2023-01-29T12:58:22;19.00;;;10.13;;
66751;SDS011;53663;42.676;23.238;2023-01-29T13:00:54;15.50;;;9.32;;
66751;SDS011;53663;42.676;23.238;2023-01-29T13:06:05;20.63;;;9.73;;
66751;SDS011;53663;42.676;23.238;2023-01-29T13:08:36;17.00;;;9.82;;
66751;SDS011;53663;42.676;23.238;2023-01-29T13:11:17;18.58;;;10.73;;
66751;SDS011;53663;42.676;23.238;2023-01-29T13:13:49;20.08;;;10.27;;
66751;SDS011;53663;42.676;23.238;2023-01-29T13:16:18;17.60;;;10.93;;
66751;SDS011;53663;42.676;23.238;2023-01-29T13:21:25;20.23;;;10.70;;
66751;SDS011;53663;42.676;23.238;2023-01-29T13:24:01;17.00;;;11.00;;
66751;SDS011;53663;42.676;23.238;2023-01-29T13:26:28;18.05;;;11.07;;
66751;SDS011;53663;42.676;23.238;2023-01-29T13:28:55;16.35;;;9.88;;
66751;SDS011;53663;42.676;23.238;2023-01-29T13:36:44;16.85;;;10.48;;
66751;SDS011;53663;42.676;23.238;2023-01-29T13:39:16;22.45;;;10.60;;
66751;SDS011;53663;42.676;23.238;2023-01-29T13:41:49;19.48;;;10.45;;
66751;SDS011;53663;42.676;23.238;2023-01-29T13:46:52;17.30;;;10.13;;
66751;SDS011;53663;42.676;23.238;2023-01-29T13:49:42;22.00;;;10.63;;
66751;SDS011;53663;42.676;23.238;2023-01-29T13:54:39;17.52;;;9.73;;
66751;SDS011;53663;42.676;23.238;2023-01-29T13:57:17;19.48;;;9.60;;
66751;SDS011;53663;42.676;23.238;2023-01-29T14:07:56;26.00;;;12.45;;
66751;SDS011;53663;42.676;23.238;2023-01-29T14:10:30;26.25;;;11.88;;
66751;SDS011;53663;42.676;23.238;2023-01-29T14:15:35;25.52;;;12.45;;
66751;SDS011;53663;42.676;23.238;2023-01-29T14:23:56;21.27;;;12.20;;
66751;SDS011;53663;42.676;23.238;2023-01-29T14:42:16;21.95;;;11.88;;
66751;SDS011;53663;42.676;23.238;2023-01-29T14:47:18;20.70;;;11.02;;
66751;SDS011;53663;42.676;23.238;2023-01-29T14:49:54;19.92;;;10.68;;
66751;SDS011;53663;42.676;23.238;2023-01-29T14:52:22;20.75;;;10.60;;
66751;SDS011;53663;42.676;23.238;2023-01-29T14:54:52;22.25;;;11.13;;
66751;SDS011;53663;42.676;23.238;2023-01-29T14:57:23;20.58;;;10.65;;
66751;SDS011;53663;42.676;23.238;2023-01-29T14:59:54;23.70;;;10.85;;
66751;SDS011;53663;42.676;23.238;2023-01-29T15:02:25;22.73;;;11.05;;
66751;SDS011;53663;42.676;23.238;2023-01-29T15:05:00;20.98;;;10.73;;
66751;SDS011;53663;42.676;23.238;2023-01-29T15:07:38;22.40;;;11.38;;
66751;SDS011;53663;42.676;23.238;2023-01-29T15:10:18;21.95;;;11.38;;
66751;SDS011;53663;42.676;23.238;2023-01-29T15:18:18;19.35;;;10.30;;
66751;SDS011;53663;42.676;23.238;2023-01-29T15:21:03;18.77;;;9.80;;
66751;SDS011;53663;42.676;23.238;2023-01-29T15:23:39;22.08;;;11.27;;
66751;SDS011;53663;42.676;23.238;2023-01-29T15:26:09;19.70;;;9.68;;
66751;SDS011;53663;42.676;23.238;2023-01-29T15:28:38;19.25;;;10.23;;
66751;SDS011;53663;42.676;23.238;2023-01-29T15:31:05;21.73;;;11.25;;
66751;SDS011;53663;42.676;23.238;2023-01-29T15:33:37;17.73;;;10.25;;
66751;SDS011;53663;42.676;23.238;2023-01-29T15:36:05;22.02;;;12.27;;
66751;SDS011;53663;42.676;23.238;2023-01-29T15:38:31;21.98;;;10.73;;
66751;SDS011;53663;42.676;23.238;2023-01-29T15:40:58;20.88;;;10.95;;
66751;SDS011;53663;42.676;23.238;2023-01-29T15:43:26;22.58;;;11.60;;
66751;SDS011;53663;42.676;23.238;2023-01-29T15:45:57;23.35;;;11.95;;
66751;SDS011;53663;42.676;23.238;2023-01-29T15:48:28;23.90;;;12.82;;
66751;SDS011;53663;42.676;23.238;2023-01-29T15:50:56;23.80;;;12.27;;
66751;SDS011;53663;42.676;23.238;2023-01-29T15:53:28;21.38;;;11.68;;
66751;SDS011;53663;42.676;23.238;2023-01-29T15:55:59;20.77;;;11.88;;
66751;SDS011;53663;42.676;23.238;2023-01-29T15:58:29;22.77;;;12.40;;
66751;SDS011;53663;42.676;23.238;2023-01-29T16:00:56;36.90;;;17.40;;
66751;SDS011;53663;42.676;23.238;2023-01-29T16:03:25;27.40;;;14.73;;
66751;SDS011;53663;42.676;23.238;2023-01-29T16:05:54;30.70;;;15.70;;
66751;SDS011;53663;42.676;23.238;2023-01-29T16:08:21;33.63;;;16.70;;
66751;SDS011;53663;42.676;23.238;2023-01-29T16:10:51;32.88;;;15.70;;
66751;SDS011;53663;42.676;23.238;2023-01-29T16:13:24;33.80;;;17.70;;
66751;SDS011;53663;42.676;23.238;2023-01-29T16:16:34;30.83;;;15.93;;
66751;SDS011;53663;42.676;23.238;2023-01-29T16:18:59;28.25;;;15.52;;
66751;SDS011;53663;42.676;23.238;2023-01-29T16:21:35;28.08;;;15.02;;
66751;SDS011;53663;42.676;23.238;2023-01-29T16:24:10;24.95;;;12.73;;
66751;SDS011;53663;42.676;23.238;2023-01-29T16:26:46;26.48;;;13.05;;
66751;SDS011;53663;42.676;23.238;2023-01-29T16:29:16;32.55;;;16.02;;
66751;SDS011;53663;42.676;23.238;2023-01-29T16:31:45;37.78;;;20.13;;
66751;SDS011;53663;42.676;23.238;2023-01-29T16:34:25;34.08;;;17.20;;
66751;SDS011;53663;42.676;23.238;2023-01-29T16:36:51;24.80;;;13.35;;
66751;SDS011;53663;42.676;23.238;2023-01-29T16:39:20;23.63;;;12.50;;
66751;SDS011;53663;42.676;23.238;2023-01-29T16:42:01;26.05;;;12.70;;
66751;SDS011;53663;42.676;23.238;2023-01-29T16:44:56;25.08;;;13.55;;
66751;SDS011;53663;42.676;23.238;2023-01-29T16:47:38;27.60;;;13.35;;
66751;SDS011;53663;42.676;23.238;2023-01-29T16:52:53;22.17;;;12.13;;
66751;SDS011;53663;42.676;23.238;2023-01-29T16:55:25;25.33;;;13.15;;
66751;SDS011;53663;42.676;23.238;2023-01-29T16:57:51;20.60;;;12.20;;
66751;SDS011;53663;42.676;23.238;2023-01-29T17:00:23;23.42;;;12.45;;
66751;SDS011;53663;42.676;23.238;2023-01-29T17:02:51;20.83;;;11.45;;
66751;SDS011;53663;42.676;23.238;2023-01-29T17:05:27;18.40;;;9.95;;
66751;SDS011;53663;42.676;23.238;2023-01-29T17:07:54;22.08;;;11.20;;
66751;SDS011;53663;42.676;23.238;2023-01-29T17:10:22;21.63;;;10.95;;
66751;SDS011;53663;42.676;23.238;2023-01-29T17:12:56;29.08;;;16.40;;
66751;SDS011;53663;42.676;23.238;2023-01-29T17:18:01;29.30;;;13.55;;
66751;SDS011;53663;42.676;23.238;2023-01-29T17:20:28;24.50;;;12.18;;
66751;SDS011;53663;42.676;23.238;2023-01-29T17:22:54;21.25;;;11.18;;
66751;SDS011;53663;42.676;23.238;2023-01-29T17:25:19;19.83;;;11.40;;
66751;SDS011;53663;42.676;23.238;2023-01-29T17:27:46;24.58;;;11.48;;
66751;SDS011;53663;42.676;23.238;2023-01-29T17:30:16;19.02;;;10.80;;
66751;SDS011;53663;42.676;23.238;2023-01-29T17:32:47;21.20;;;10.70;;
66751;SDS011;53663;42.676;23.238;2023-01-29T17:35:13;22.13;;;11.20;;
66751;SDS011;53663;42.676;23.238;2023-01-29T17:37:40;19.30;;;10.00;;
66751;SDS011;53663;42.676;23.238;2023-01-29T17:43:03;21.83;;;11.40;;
66751;SDS011;53663;42.676;23.238;2023-01-29T17:45:29;23.90;;;11.73;;
66751;SDS011;53663;42.676;23.238;2023-01-29T17:47:54;20.73;;;10.65;;
66751;SDS011;53663;42.676;23.238;2023-01-29T17:50:21;25.65;;;12.45;;
66751;SDS011;53663;42.676;23.238;2023-01-29T17:52:49;27.08;;;13.07;;
66751;SDS011;53663;42.676;23.238;2023-01-29T17:55:15;25.23;;;13.70;;
66751;SDS011;53663;42.676;23.238;2023-01-29T17:57:41;28.85;;;14.23;;
66751;SDS011;53663;42.676;23.238;2023-01-29T18:00:25;31.83;;;13.88;;
66751;SDS011;53663;42.676;23.238;2023-01-29T18:02:50;33.47;;;16.27;;
66751;SDS011;53663;42.676;23.238;2023-01-29T18:05:16;38.92;;;17.58;;